createdAt,value
2018-02-05T00:02:02.857Z,58.60
2018-02-05T00:04:30.611Z,53.13
2018-02-05T00:06:58.365Z,57.15
2018-02-05T00:09:26.195Z,60.22
2018-02-05T00:11:54.714Z,53.00
2018-02-05T00:14:22.475Z,56.03
2018-02-05T00:16:50.300Z,54.08
2018-02-05T00:19:18.824Z,48.80
2018-02-05T00:21:46.584Z,53.58
2018-02-05T00:24:14.428Z,53.40
2018-02-05T00:26:42.245Z,51.42
2018-02-05T00:29:10.003Z,54.70
2018-02-05T00:31:37.816Z,50.60
2018-02-05T00:34:05.575Z,45.10
2018-02-05T00:36:33.352Z,45.20
2018-02-05T00:39:01.178Z,60.92
2018-02-05T00:41:29.703Z,49.47
2018-02-05T00:43:57.482Z,43.97
2018-02-05T00:46:25.291Z,40.40
2018-02-05T00:51:35.950Z,36.63
2018-02-05T00:54:03.784Z,36.65
2018-02-05T00:56:31.563Z,44.85
2018-02-05T00:58:59.552Z,43.60
2018-02-05T01:01:28.076Z,36.22
2018-02-05T01:03:55.863Z,37.72
2018-02-05T01:06:24.448Z,35.63
2018-02-05T01:08:52.212Z,38.30
2018-02-05T01:11:19.979Z,41.00
2018-02-05T01:13:47.795Z,39.05
2018-02-05T01:16:15.561Z,40.85
2018-02-05T01:18:43.339Z,42.00
2018-02-05T01:21:11.151Z,43.87
2018-02-05T01:23:39.670Z,33.70
2018-02-05T01:26:07.433Z,32.65
2018-02-05T01:28:35.248Z,33.67
2018-02-05T01:31:03.013Z,39.13
2018-02-05T01:33:31.534Z,36.67
2018-02-05T01:35:59.350Z,40.05
2018-02-05T01:38:27.108Z,38.63
2018-02-05T01:40:54.861Z,40.85
2018-02-05T01:43:22.671Z,36.70
2018-02-05T01:45:50.424Z,37.50
2018-02-05T01:48:18.180Z,39.20
2018-02-05T01:50:45.999Z,35.88
2018-02-05T01:53:13.760Z,33.92
2018-02-05T01:55:41.522Z,39.20
2018-02-05T01:58:09.332Z,33.40
2018-02-05T02:00:37.095Z,40.53
2018-02-05T02:03:04.852Z,36.15
2018-02-05T02:05:33.432Z,32.25
2018-02-05T02:08:01.958Z,34.92
2018-02-05T02:10:29.722Z,39.35
2018-02-05T02:12:57.544Z,35.58
2018-02-05T02:15:25.303Z,35.67
2018-02-05T02:17:53.063Z,39.42
2018-02-05T02:20:21.671Z,31.98
2018-02-05T02:22:49.450Z,33.53
2018-02-05T02:25:17.218Z,36.28
2018-02-05T02:27:45.032Z,31.10
2018-02-05T02:30:12.788Z,33.47
2018-02-05T02:32:41.318Z,38.30
2018-02-05T02:35:09.147Z,32.60
2018-02-05T02:37:36.912Z,40.30
2018-02-05T02:40:04.675Z,30.37
2018-02-05T02:42:32.491Z,31.15
2018-02-05T02:45:00.253Z,27.73
2018-02-05T02:47:28.036Z,30.12
2018-02-05T02:49:55.852Z,30.88
2018-02-05T02:52:24.383Z,28.05
2018-02-05T02:54:52.912Z,27.55
2018-02-05T02:57:20.728Z,26.87
2018-02-05T02:59:49.264Z,29.65
2018-02-05T03:02:17.034Z,28.77
2018-02-05T03:04:44.877Z,23.20
2018-02-05T03:07:12.643Z,23.05
2018-02-05T03:09:40.399Z,27.90
2018-02-05T03:12:08.227Z,31.35
2018-02-05T03:14:35.993Z,29.10
2018-02-05T03:17:03.760Z,25.35
2018-02-05T03:19:31.578Z,28.85
2018-02-05T03:21:59.378Z,26.00
2018-02-05T03:24:27.146Z,27.00
2018-02-05T03:26:55.059Z,26.10
2018-02-05T03:29:22.820Z,29.30
2018-02-05T03:31:50.589Z,22.40
2018-02-05T03:34:18.403Z,25.05
2018-02-05T03:36:46.162Z,26.85
2018-02-05T03:39:13.922Z,24.65
2018-02-05T03:41:41.738Z,26.05
2018-02-05T03:44:09.498Z,29.77
2018-02-05T03:46:37.269Z,24.02
2018-02-05T03:49:05.133Z,31.87
2018-02-05T03:51:32.895Z,28.40
2018-02-05T03:54:00.665Z,27.33
2018-02-05T03:56:29.243Z,20.70
2018-02-05T03:58:57.003Z,26.85
2018-02-05T04:01:24.818Z,27.37
2018-02-05T04:03:52.652Z,25.88
2018-02-05T04:06:20.420Z,26.70
2018-02-05T04:08:48.234Z,29.95
2018-02-05T04:11:16.079Z,41.22
2018-02-05T04:13:43.868Z,34.83
2018-02-05T04:16:11.632Z,33.97
2018-02-05T04:18:39.452Z,33.75
2018-02-05T04:21:07.211Z,24.98
2018-02-05T04:23:34.975Z,24.15
2018-02-05T04:26:02.814Z,29.67
2018-02-05T04:28:30.574Z,21.85
2018-02-05T04:30:58.334Z,26.12
2018-02-05T04:33:26.919Z,20.83
2018-02-05T04:35:54.704Z,26.77
2018-02-05T04:38:22.481Z,27.20
2018-02-05T04:40:50.308Z,27.90
2018-02-05T04:43:18.073Z,32.33
2018-02-05T04:45:45.847Z,25.45
2018-02-05T04:48:13.668Z,30.08
2018-02-05T04:50:41.431Z,28.60
2018-02-05T04:53:09.955Z,19.20
2018-02-05T04:55:37.831Z,22.87
2018-02-05T04:58:05.611Z,24.33
2018-02-05T05:00:33.378Z,23.50
2018-02-05T05:03:01.197Z,19.42
2018-02-05T05:05:28.963Z,19.77
2018-02-05T05:07:56.754Z,15.73
2018-02-05T05:10:25.336Z,15.43
2018-02-05T05:12:53.155Z,21.05
2018-02-05T05:15:20.925Z,17.55
2018-02-05T05:17:48.743Z,21.55
2018-02-05T05:20:16.509Z,19.37
2018-02-05T05:22:44.271Z,15.65
2018-02-05T05:25:12.092Z,19.58
2018-02-05T05:27:39.856Z,16.85
2018-02-05T05:30:07.639Z,15.95
2018-02-05T05:32:35.480Z,16.37
2018-02-05T05:35:03.235Z,21.10
2018-02-05T05:37:30.994Z,18.73
2018-02-05T05:39:58.812Z,19.17
2018-02-05T05:42:26.592Z,19.80
2018-02-05T05:44:55.118Z,25.45
2018-02-05T05:47:22.926Z,17.58
2018-02-05T05:49:51.457Z,21.65
2018-02-05T05:52:19.219Z,19.25
2018-02-05T05:54:47.047Z,20.17
2018-02-05T05:57:14.809Z,20.05
2018-02-05T05:59:42.582Z,17.95
2018-02-05T06:02:10.503Z,25.55
2018-02-05T06:04:38.267Z,20.27
2018-02-05T06:07:06.036Z,15.10
2018-02-05T06:09:33.852Z,18.75
2018-02-05T06:12:01.616Z,19.30
2018-02-05T06:14:29.397Z,16.08
2018-02-05T06:16:57.226Z,17.00
2018-02-05T06:19:24.998Z,19.70
2018-02-05T06:21:52.763Z,18.77
2018-02-05T06:24:20.603Z,17.67
2018-02-05T06:26:48.372Z,18.10
2018-02-05T06:29:16.136Z,19.50
2018-02-05T06:31:43.957Z,18.77
2018-02-05T06:34:11.720Z,25.52
2018-02-05T06:36:39.489Z,35.58
2018-02-05T06:39:08.072Z,29.67
2018-02-05T06:41:36.596Z,24.05
2018-02-05T06:44:04.369Z,19.95
2018-02-05T06:46:32.243Z,25.80
2018-02-05T06:49:00.012Z,18.40
2018-02-05T06:51:39.841Z,20.45
2018-02-05T06:54:19.500Z,21.23
2018-02-05T06:56:47.331Z,15.48
2018-02-05T06:59:15.131Z,17.87
2018-02-05T07:01:42.894Z,19.55
2018-02-05T07:04:10.724Z,19.02
2018-02-05T07:06:38.493Z,18.10
2018-02-05T07:09:06.260Z,25.25
2018-02-05T07:11:34.079Z,20.85
2018-02-05T07:14:01.865Z,21.45
2018-02-05T07:16:29.627Z,20.40
2018-02-05T07:18:57.449Z,18.25
2018-02-05T07:21:25.984Z,21.62
2018-02-05T07:23:53.748Z,19.35
2018-02-05T07:26:21.561Z,23.23
2018-02-05T07:28:50.099Z,26.98
2018-02-05T07:31:17.864Z,22.42
2018-02-05T07:33:45.718Z,19.55
2018-02-05T07:36:14.251Z,20.65
2018-02-05T07:38:42.784Z,19.15
2018-02-05T07:41:10.633Z,19.77
2018-02-05T07:43:38.391Z,32.00
2018-02-05T07:46:06.172Z,24.83
2018-02-05T07:48:33.988Z,21.75
2018-02-05T07:51:01.752Z,24.30
2018-02-05T07:53:29.544Z,23.80
2018-02-05T07:55:57.359Z,29.02
2018-02-05T07:58:25.875Z,25.52
2018-02-05T08:00:53.632Z,23.38
2018-02-05T08:03:21.460Z,21.67
2018-02-05T08:05:49.979Z,22.70
2018-02-05T08:08:17.768Z,25.92
2018-02-05T08:10:45.591Z,25.70
2018-02-05T08:13:13.349Z,31.67
2018-02-05T08:15:41.130Z,21.95
2018-02-05T08:18:08.998Z,28.25
2018-02-05T08:20:36.764Z,20.02
2018-02-05T08:23:04.525Z,19.15
2018-02-05T08:25:32.352Z,23.62
2018-02-05T08:28:00.872Z,20.62
2018-02-05T08:30:28.632Z,24.80
2018-02-05T08:32:56.452Z,22.85
2018-02-05T08:35:24.978Z,17.23
2018-02-05T08:37:52.739Z,18.10
2018-02-05T08:40:20.572Z,21.95
2018-02-05T08:42:48.361Z,28.10
2018-02-05T08:45:16.139Z,21.08
2018-02-05T08:47:43.972Z,22.42
2018-02-05T08:50:11.736Z,17.50
2018-02-05T08:52:39.488Z,27.17
2018-02-05T08:55:07.300Z,29.42
2018-02-05T08:57:35.060Z,20.37
2018-02-05T09:00:02.820Z,20.85
2018-02-05T09:02:30.627Z,17.37
2018-02-05T09:04:58.391Z,16.98
2018-02-05T09:07:26.147Z,16.70
2018-02-05T09:09:53.957Z,18.73
2018-02-05T09:12:21.721Z,16.65
2018-02-05T09:14:49.480Z,14.63
2018-02-05T09:17:17.290Z,12.98
2018-02-05T09:19:45.814Z,13.95
2018-02-05T09:22:13.572Z,9.38
2018-02-05T09:24:41.374Z,9.43
2018-02-05T09:27:09.132Z,10.70
2018-02-05T09:29:36.883Z,11.02
2018-02-05T09:32:04.704Z,14.57
2018-02-05T09:34:32.455Z,16.45
2018-02-05T09:37:00.215Z,10.85
2018-02-05T09:39:28.027Z,10.93
2018-02-05T09:41:55.793Z,7.57
2018-02-05T09:44:23.603Z,10.30
2018-02-05T09:46:51.475Z,13.57
2018-02-05T09:49:19.235Z,17.23
2018-02-05T09:51:46.991Z,12.35
2018-02-05T09:54:14.793Z,9.85
2018-02-05T09:56:42.540Z,10.57
2018-02-05T09:59:10.297Z,11.52
2018-02-05T10:01:38.114Z,9.52
2018-02-05T10:04:06.636Z,13.27
2018-02-05T10:06:34.384Z,10.75
2018-02-05T10:09:02.200Z,8.68
2018-02-05T10:11:29.953Z,9.23
2018-02-05T10:13:57.724Z,12.07
2018-02-05T10:16:25.551Z,11.23
2018-02-05T10:18:53.339Z,9.55
2018-02-05T10:21:21.100Z,17.67
2018-02-05T10:23:48.924Z,11.32
2018-02-05T10:26:16.683Z,14.00
2018-02-05T10:28:44.435Z,11.18
2018-02-05T10:31:12.261Z,13.65
2018-02-05T10:33:40.031Z,20.12
2018-02-05T10:36:07.833Z,13.90
2018-02-05T10:38:35.670Z,15.73
2018-02-05T10:41:04.200Z,16.30
2018-02-05T10:43:31.962Z,13.77
2018-02-05T10:45:59.784Z,20.37
2018-02-05T10:48:28.359Z,15.10
2018-02-05T10:50:56.877Z,8.82
2018-02-05T10:53:24.705Z,9.60
2018-02-05T10:55:53.224Z,9.85
2018-02-05T10:58:20.974Z,8.77
2018-02-05T11:00:48.772Z,5.90
2018-02-05T11:03:16.528Z,7.70
2018-02-05T11:05:44.291Z,7.40
2018-02-05T11:08:12.117Z,7.70
2018-02-05T11:10:39.914Z,8.30
2018-02-05T11:13:08.444Z,8.65
2018-02-05T11:15:36.247Z,8.65
2018-02-05T11:18:04.014Z,7.57
2018-02-05T11:20:31.796Z,8.55
2018-02-05T11:22:59.607Z,7.95
2018-02-05T11:25:27.364Z,13.02
2018-02-05T11:27:55.118Z,10.95
2018-02-05T11:30:22.924Z,9.88
2018-02-05T11:32:50.688Z,8.85
2018-02-05T11:35:18.444Z,15.88
2018-02-05T11:37:46.276Z,11.52
2018-02-05T11:40:14.040Z,9.75
2018-02-05T11:42:41.783Z,5.90
2018-02-05T11:45:10.360Z,8.43
2018-02-05T11:47:38.882Z,17.62
2018-02-05T11:50:06.644Z,12.68
2018-02-05T11:52:34.456Z,16.27
2018-02-05T11:55:02.984Z,8.75
2018-02-05T11:57:30.736Z,14.45
2018-02-05T11:59:58.557Z,8.88
2018-02-05T12:02:27.101Z,15.45
2018-02-05T12:04:54.868Z,10.02
2018-02-05T12:07:22.684Z,9.15
2018-02-05T12:09:50.448Z,8.82
2018-02-05T12:12:18.204Z,8.68
2018-02-05T12:14:46.019Z,11.45
2018-02-05T12:17:13.776Z,8.48
2018-02-05T12:19:41.543Z,11.48
2018-02-05T12:22:09.358Z,6.50
2018-02-05T12:24:37.114Z,14.50
2018-02-05T12:27:04.869Z,8.80
2018-02-05T12:29:33.447Z,5.47
2018-02-05T12:32:01.984Z,11.93
2018-02-05T12:34:29.756Z,9.70
2018-02-05T12:36:57.575Z,11.88
2018-02-05T12:39:25.332Z,9.35
2018-02-05T12:41:53.979Z,12.32
2018-02-05T12:44:21.791Z,7.72
2018-02-05T12:46:49.552Z,9.55
2018-02-05T12:49:17.303Z,9.77
2018-02-05T12:51:45.115Z,7.00
2018-02-05T12:54:12.883Z,10.10
2018-02-05T12:56:40.653Z,5.93
2018-02-05T12:59:08.493Z,10.57
2018-02-05T13:14:58.911Z,9.43
2018-02-05T13:17:26.664Z,7.95
2018-02-05T13:19:55.188Z,8.88
2018-02-05T13:22:23.758Z,7.10
2018-02-05T13:24:51.508Z,6.25
2018-02-05T13:27:19.268Z,7.35
2018-02-05T13:29:47.077Z,6.70
2018-02-05T13:32:14.846Z,6.47
2018-02-05T13:34:42.608Z,8.82
2018-02-05T13:37:10.416Z,10.38
2018-02-05T13:39:38.195Z,8.48
2018-02-05T13:42:05.951Z,8.57
2018-02-05T13:44:33.760Z,7.20
2018-02-05T13:47:01.515Z,14.43
2018-02-05T13:49:29.281Z,12.85
2018-02-05T13:51:57.091Z,11.63
2018-02-05T13:54:24.849Z,8.40
2018-02-05T13:56:52.619Z,5.78
2018-02-05T13:59:20.514Z,10.82
2018-02-05T14:01:48.275Z,7.97
2018-02-05T14:04:16.024Z,4.93
2018-02-05T14:06:43.836Z,7.60
2018-02-05T14:09:12.365Z,8.60
2018-02-05T14:11:40.168Z,6.53
2018-02-05T14:14:08.752Z,9.10
2018-02-05T14:16:37.277Z,6.05
2018-02-05T14:19:07.552Z,7.70
2018-02-05T14:21:36.135Z,9.57
2018-02-05T14:24:04.650Z,7.43
2018-02-05T14:26:32.411Z,5.75
2018-02-05T14:29:00.232Z,8.75
2018-02-05T14:31:28.755Z,9.35
2018-02-05T14:33:56.517Z,7.93
2018-02-05T14:36:24.333Z,8.85
2018-02-05T14:38:52.097Z,11.12
2018-02-05T14:41:20.620Z,8.68
2018-02-05T14:43:48.439Z,8.57
2018-02-05T14:46:16.983Z,12.73
2018-02-05T14:48:44.778Z,11.73
2018-02-05T14:51:12.592Z,9.57
2018-02-05T14:53:40.352Z,10.10
2018-02-05T14:56:08.104Z,8.50
2018-02-05T14:58:35.923Z,10.88
2018-02-05T15:01:03.684Z,9.18
2018-02-05T15:03:31.444Z,6.90
2018-02-05T15:05:59.255Z,12.85
2018-02-05T15:08:27.015Z,8.85
2018-02-05T15:10:54.775Z,7.07
2018-02-05T15:13:22.591Z,8.00
2018-02-05T15:15:50.352Z,5.30
2018-02-05T15:18:18.112Z,6.53
2018-02-05T15:20:45.972Z,6.50
2018-02-05T15:23:13.744Z,8.52
2018-02-05T15:25:41.523Z,6.37
2018-02-05T15:28:10.103Z,9.18
2018-02-05T15:30:38.632Z,6.40
2018-02-05T15:33:06.392Z,9.02
2018-02-05T15:35:34.222Z,7.32
2018-02-05T15:38:01.988Z,9.55
2018-02-05T15:40:29.748Z,6.40
2018-02-05T15:42:57.584Z,13.38
2018-02-05T15:45:25.395Z,8.80
2018-02-05T15:47:53.148Z,9.90
2018-02-05T15:50:20.968Z,12.50
2018-02-05T15:52:49.535Z,15.23
2018-02-05T15:55:17.309Z,13.38
2018-02-05T15:57:45.151Z,18.37
2018-02-05T16:00:12.918Z,12.88
2018-02-05T16:02:40.684Z,14.05
2018-02-05T16:05:08.494Z,10.55
2018-02-05T16:07:36.261Z,18.65
2018-02-05T16:10:04.051Z,11.07
2018-02-05T16:12:31.875Z,13.18
2018-02-05T16:14:59.651Z,13.75
2018-02-05T16:17:27.417Z,13.75
2018-02-05T16:19:55.250Z,17.92
2018-02-05T16:22:23.800Z,16.37
2018-02-05T16:24:51.563Z,11.25
2018-02-05T16:27:19.375Z,11.23
2018-02-05T16:29:47.133Z,13.45
2018-02-05T16:32:14.888Z,18.20
2018-02-05T16:34:42.727Z,15.77
2018-02-05T16:37:10.492Z,16.83
2018-02-05T16:39:38.259Z,10.32
2018-02-05T16:42:06.856Z,14.38
2018-02-05T16:44:34.665Z,14.27
2018-02-05T16:47:02.442Z,12.98
2018-02-05T16:49:30.254Z,10.38
2018-02-05T16:51:58.012Z,12.10
2018-02-05T16:54:25.808Z,12.50
2018-02-05T16:56:53.640Z,9.02
2018-02-05T16:59:21.412Z,12.60
2018-02-05T17:01:49.168Z,13.25
2018-02-05T17:04:16.983Z,15.98
2018-02-05T17:06:44.755Z,22.77
2018-02-05T17:09:12.516Z,13.40
2018-02-05T17:11:40.340Z,15.15
2018-02-05T17:14:08.096Z,14.68
2018-02-05T17:16:35.856Z,20.80
2018-02-05T17:19:03.676Z,17.08
2018-02-05T17:21:34.753Z,19.25
2018-02-05T17:24:02.524Z,22.13
2018-02-05T17:26:30.349Z,19.10
2018-02-05T17:28:58.880Z,21.12
2018-02-05T17:31:26.640Z,20.80
2018-02-05T17:33:54.501Z,15.95
2018-02-05T17:36:22.284Z,19.40
2018-02-05T17:38:50.104Z,16.00
2018-02-05T17:41:17.932Z,20.52
2018-02-05T17:43:46.478Z,15.65
2018-02-05T17:46:14.259Z,16.33
2018-02-05T17:48:42.075Z,17.77
2018-02-05T17:51:09.841Z,17.42
2018-02-05T17:53:37.619Z,17.70
2018-02-05T17:56:05.444Z,17.62
2018-02-05T17:58:33.204Z,20.95
2018-02-05T18:01:00.970Z,15.20
2018-02-05T18:03:28.792Z,16.52
2018-02-05T18:05:56.556Z,17.08
2018-02-05T18:08:24.320Z,16.00
2018-02-05T18:10:52.140Z,19.25
2018-02-05T18:13:19.904Z,12.55
2018-02-05T18:15:47.664Z,15.13
2018-02-05T18:18:15.519Z,15.32
2018-02-05T18:20:43.283Z,15.98
2018-02-05T18:23:11.043Z,16.40
2018-02-05T18:25:38.869Z,12.82
2018-02-05T18:28:07.405Z,14.07
2018-02-05T18:30:35.940Z,17.10
2018-02-05T18:33:04.548Z,17.08
2018-02-05T18:35:32.312Z,16.27
2018-02-05T18:38:00.095Z,17.37
2018-02-05T18:40:27.916Z,15.95
2018-02-05T18:42:55.701Z,18.42
2018-02-05T18:45:23.490Z,15.07
2018-02-05T18:47:51.307Z,20.83
2018-02-05T18:50:19.069Z,17.23
2018-02-05T18:52:46.835Z,22.58
2018-02-05T18:55:14.651Z,19.90
2018-02-05T18:57:42.415Z,26.65
2018-02-05T19:00:22.166Z,17.27
2018-02-05T19:02:49.929Z,24.30
2018-02-05T19:05:17.691Z,21.98
2018-02-05T19:07:45.514Z,17.02
2018-02-05T19:10:13.276Z,28.10
2018-02-05T19:12:41.053Z,22.98
2018-02-05T19:15:08.871Z,21.62
2018-02-05T19:17:36.647Z,25.58
2018-02-05T19:20:04.423Z,18.55
2018-02-05T19:22:32.242Z,19.25
2018-02-05T19:25:00.784Z,20.48
2018-02-05T19:27:28.583Z,17.95
2018-02-05T19:29:57.180Z,25.08
2018-02-05T19:32:24.956Z,22.13
2018-02-05T19:34:52.723Z,23.30
2018-02-05T19:37:20.544Z,24.10
2018-02-05T19:39:48.307Z,19.42
2018-02-05T19:42:16.841Z,24.50
2018-02-05T19:44:44.672Z,22.17
2018-02-05T19:47:12.484Z,21.27
2018-02-05T19:49:40.262Z,23.55
2018-02-05T19:52:08.079Z,28.83
2018-02-05T19:54:35.845Z,22.13
2018-02-05T19:57:03.620Z,32.50
2018-02-05T19:59:32.205Z,29.23
2018-02-05T20:01:59.974Z,24.23
2018-02-05T20:04:27.737Z,25.73
2018-02-05T20:06:55.561Z,30.70
2018-02-05T20:09:23.321Z,27.13
2018-02-05T20:11:51.080Z,34.95
2018-02-05T20:14:18.898Z,32.90
2018-02-05T20:16:46.659Z,38.15
2018-02-05T20:19:14.496Z,33.72
2018-02-05T20:21:42.311Z,31.25
2018-02-05T20:24:10.847Z,32.47
2018-02-05T20:26:38.612Z,43.92
2018-02-05T20:29:06.431Z,47.53
2018-02-05T20:31:34.191Z,70.68
2018-02-05T20:34:01.951Z,63.83
2018-02-05T20:36:29.780Z,59.83
2018-02-05T20:38:57.563Z,63.60
2018-02-05T20:41:25.381Z,76.60
2018-02-05T20:43:53.195Z,84.80
2018-02-05T20:46:20.972Z,88.50
2018-02-05T20:48:48.730Z,85.38
2018-02-05T20:51:16.548Z,90.90
2018-02-05T20:53:44.315Z,85.78
2018-02-05T20:56:12.087Z,82.40
2018-02-05T20:58:40.683Z,85.30
2018-02-05T21:01:09.223Z,91.75
2018-02-05T21:03:36.988Z,94.62
2018-02-05T21:06:04.811Z,84.15
2018-02-05T21:08:32.579Z,86.18
2018-02-05T21:11:00.340Z,90.87
2018-02-05T21:13:28.161Z,93.05
2018-02-05T21:15:55.923Z,98.75
2018-02-05T21:18:23.687Z,98.47
2018-02-05T21:20:52.272Z,109.85
2018-02-05T21:23:20.055Z,124.28
2018-02-05T21:25:47.814Z,121.82
2018-02-05T21:28:15.685Z,128.40
2018-02-05T21:30:43.457Z,116.78
2018-02-05T21:33:11.223Z,121.97
2018-02-05T21:35:39.057Z,115.07
2018-02-05T21:38:07.595Z,139.37
2018-02-05T21:40:36.120Z,110.47
2018-02-05T21:43:04.702Z,119.53
2018-02-05T21:45:32.477Z,131.23
2018-02-05T21:48:00.282Z,133.10
2018-02-05T21:50:28.112Z,128.15
2018-02-05T21:52:55.871Z,123.80
2018-02-05T21:55:23.631Z,109.65
2018-02-05T21:57:51.469Z,90.72
2018-02-05T22:00:19.235Z,94.47
2018-02-05T22:02:47.004Z,104.72
2018-02-05T22:05:14.832Z,104.90
2018-02-05T22:07:42.598Z,89.10
2018-02-05T22:10:10.368Z,112.75
2018-02-05T22:12:38.954Z,83.45
2018-02-05T22:15:07.490Z,92.55
2018-02-05T22:17:35.256Z,91.60
2018-02-05T22:20:03.092Z,104.60
2018-02-05T22:22:30.855Z,116.30
2018-02-05T22:24:58.622Z,101.38
2018-02-05T22:27:26.451Z,111.53
2018-02-05T22:29:54.975Z,88.10
2018-02-05T22:32:22.747Z,99.53
2018-02-05T22:34:50.572Z,97.30
2018-02-05T22:37:18.332Z,95.78
2018-02-05T22:39:46.107Z,101.35
2018-02-05T22:42:13.971Z,92.93
2018-02-05T22:44:41.735Z,84.50
2018-02-05T22:47:09.506Z,80.10
2018-02-05T22:49:37.332Z,94.87
2018-02-05T22:52:05.873Z,77.10
2018-02-05T22:54:33.631Z,95.40
2018-02-05T22:57:01.455Z,88.85
2018-02-05T22:59:29.218Z,84.13
2018-02-05T23:01:56.998Z,99.90
2018-02-05T23:04:24.815Z,99.05
2018-02-05T23:06:53.344Z,91.22
2018-02-05T23:09:21.108Z,88.60
2018-02-05T23:11:48.920Z,76.40
2018-02-05T23:14:17.448Z,75.47
2018-02-05T23:16:45.213Z,85.97
2018-02-05T23:19:13.020Z,84.95
2018-02-05T23:21:41.549Z,77.95
2018-02-05T23:24:09.328Z,91.35
2018-02-05T23:26:37.144Z,80.30
2018-02-05T23:29:04.904Z,81.18
2018-02-05T23:31:32.673Z,83.62
2018-02-05T23:34:00.490Z,88.07
2018-02-05T23:36:28.252Z,90.15
2018-02-05T23:38:56.035Z,85.70
2018-02-05T23:41:24.614Z,100.53
2018-02-05T23:43:53.148Z,101.18
2018-02-05T23:46:20.907Z,97.85
2018-02-05T23:48:48.729Z,103.68
2018-02-05T23:51:17.256Z,107.35
2018-02-05T23:53:45.045Z,107.55
2018-02-05T23:56:12.869Z,123.30
2018-02-05T23:58:40.639Z,112.75
